createdAt,value
2023-09-23T00:01:42.007Z,96363.13
2023-09-23T00:04:10.327Z,96358.44
2023-09-23T00:06:38.220Z,96367.59
2023-09-23T00:09:06.399Z,96356.63
2023-09-23T00:11:36.393Z,96371.09
2023-09-23T00:14:06.783Z,96383.34
2023-09-23T00:16:35.048Z,96381.50
2023-09-23T00:19:03.190Z,96387.00
2023-09-23T00:21:30.781Z,96386.38
2023-09-23T00:23:59.068Z,96387.19
2023-09-23T00:26:27.761Z,96392.28
2023-09-23T00:28:57.215Z,96390.47
2023-09-23T00:31:26.007Z,96394.34
2023-09-23T00:33:53.609Z,96404.50
2023-09-23T00:36:23.187Z,96401.47
2023-09-23T00:38:51.224Z,96399.00
2023-09-23T00:41:19.378Z,96409.22
2023-09-23T00:43:48.303Z,96399.41
2023-09-23T00:46:22.651Z,96387.59
2023-09-23T00:48:50.991Z,96399.63
2023-09-23T00:51:19.531Z,96406.34
2023-09-23T00:53:48.448Z,96392.31
2023-09-23T00:56:17.470Z,96416.53
2023-09-23T00:58:45.586Z,96408.59
2023-09-23T01:01:15.381Z,96415.72
2023-09-23T01:03:44.643Z,96413.69
2023-09-23T01:06:17.696Z,96408.78
2023-09-23T01:08:47.376Z,96417.34
2023-09-23T01:11:17.433Z,96416.94
2023-09-23T01:13:47.996Z,96400.84
2023-09-23T01:16:17.199Z,96416.94
2023-09-23T01:18:47.375Z,96414.09
2023-09-23T01:21:15.246Z,96422.00
2023-09-23T01:23:45.534Z,96434.47
2023-09-23T01:26:13.867Z,96441.31
2023-09-23T01:28:42.312Z,96450.50
2023-09-23T01:31:10.272Z,96451.31
2023-09-23T01:33:38.132Z,96443.19
2023-09-23T01:36:07.430Z,96455.81
2023-09-23T01:38:35.226Z,96449.91
2023-09-23T01:41:05.516Z,96452.41
2023-09-23T01:43:33.403Z,96455.47
2023-09-23T01:46:04.906Z,96460.78
2023-09-23T01:48:33.011Z,96468.72
2023-09-23T01:51:00.808Z,96477.47
2023-09-23T01:53:29.565Z,96486.47
2023-09-23T01:55:57.806Z,96483.81
2023-09-23T01:58:26.964Z,96473.41
2023-09-23T02:00:57.081Z,96479.13
2023-09-23T02:03:25.544Z,96489.94
2023-09-23T02:05:53.898Z,96496.25
2023-09-23T02:08:21.636Z,96505.59
2023-09-23T02:10:49.802Z,96496.25
2023-09-23T02:13:17.660Z,96503.00
2023-09-23T02:15:47.060Z,96494.63
2023-09-23T02:18:15.641Z,96498.09
2023-09-23T02:20:44.575Z,96490.16
2023-09-23T02:23:12.544Z,96506.66
2023-09-23T02:25:40.417Z,96505.44
2023-09-23T02:28:08.561Z,96509.91
2023-09-23T02:30:36.331Z,96504.22
2023-09-23T02:33:05.926Z,96507.09
2023-09-23T02:35:35.234Z,96511.16
2023-09-23T02:38:05.188Z,96507.91
2023-09-23T02:40:33.022Z,96511.56
2023-09-23T02:43:00.933Z,96507.47
2023-09-23T02:45:28.931Z,96508.50
2023-09-23T02:47:56.753Z,96509.50
2023-09-23T02:50:27.195Z,96516.84
2023-09-23T02:52:55.238Z,96520.91
2023-09-23T02:55:23.832Z,96525.16
2023-09-23T02:57:53.732Z,96524.13
2023-09-23T03:00:24.332Z,96523.91
2023-09-23T03:02:54.808Z,96532.81
2023-09-23T03:05:27.164Z,96543.16
2023-09-23T03:07:59.184Z,96546.38
2023-09-23T03:10:40.541Z,96544.13
2023-09-23T03:13:09.153Z,96547.78
2023-09-23T03:15:42.567Z,96553.28
2023-09-23T03:18:10.901Z,96554.53
2023-09-23T03:20:41.324Z,96558.38
2023-09-23T03:23:11.791Z,96557.13
2023-09-23T03:25:49.814Z,96551.66
2023-09-23T03:28:18.022Z,96544.72
2023-09-23T03:30:49.142Z,96553.91
2023-09-23T03:33:19.457Z,96546.59
2023-09-23T03:35:47.406Z,96566.31
2023-09-23T03:38:16.704Z,96563.66
2023-09-23T03:40:51.177Z,96560.78
2023-09-23T03:43:18.760Z,96564.63
2023-09-23T03:45:46.542Z,96573.19
2023-09-23T03:48:14.212Z,96558.91
2023-09-23T03:50:41.903Z,96560.34
2023-09-23T03:53:10.404Z,96570.72
2023-09-23T03:55:39.593Z,96570.09
2023-09-23T03:58:07.740Z,96576.66
2023-09-23T04:00:35.760Z,96582.13
2023-09-23T04:03:03.518Z,96583.19
2023-09-23T04:05:32.450Z,96597.66
2023-09-23T04:08:00.072Z,96598.91
2023-09-23T04:10:28.488Z,96608.53
2023-09-23T04:12:57.514Z,96604.88
2023-09-23T04:15:25.913Z,96614.47
2023-09-23T04:17:53.600Z,96616.94
2023-09-23T04:20:21.485Z,96623.09
2023-09-23T04:22:49.869Z,96629.63
2023-09-23T04:25:17.762Z,96635.78
2023-09-23T04:27:45.912Z,96638.22
2023-09-23T04:30:16.378Z,96633.50
2023-09-23T04:32:44.275Z,96646.81
2023-09-23T04:35:14.186Z,96647.59
2023-09-23T04:37:42.196Z,96648.31
2023-09-23T04:40:11.862Z,96653.91
2023-09-23T04:42:40.201Z,96656.09
2023-09-23T04:45:09.222Z,96650.13
2023-09-23T04:47:39.189Z,96664.03
2023-09-23T04:50:11.714Z,96673.03
2023-09-23T04:52:39.973Z,96662.44
2023-09-23T04:55:08.816Z,96657.72
2023-09-23T04:57:37.145Z,96665.75
2023-09-23T05:00:10.264Z,96663.84
2023-09-23T05:02:41.911Z,96671.59
2023-09-23T05:05:11.122Z,96673.44
2023-09-23T05:07:39.305Z,96676.88
2023-09-23T05:10:08.519Z,96682.63
2023-09-23T05:12:36.154Z,96678.03
2023-09-23T05:15:04.537Z,96693.03
2023-09-23T05:17:32.203Z,96688.94
2023-09-23T05:20:01.423Z,96693.53
2023-09-23T05:22:29.898Z,96690.25
2023-09-23T05:24:59.003Z,96698.56
2023-09-23T05:27:26.884Z,96694.91
2023-09-23T05:29:55.568Z,96701.22
2023-09-23T05:32:23.226Z,96705.25
2023-09-23T05:34:53.520Z,96713.63
2023-09-23T05:37:23.373Z,96718.47
2023-09-23T05:39:50.960Z,96725.22
2023-09-23T05:42:24.215Z,96719.97
2023-09-23T05:44:51.780Z,96726.72
2023-09-23T05:47:19.391Z,96734.47
2023-09-23T05:49:47.864Z,96732.44
2023-09-23T05:52:15.795Z,96730.72
2023-09-23T05:54:44.845Z,96729.63
2023-09-23T05:57:12.532Z,96724.34
2023-09-23T05:59:40.093Z,96731.63
2023-09-23T06:02:09.939Z,96735.69
2023-09-23T06:04:37.804Z,96728.75
2023-09-23T06:07:06.113Z,96744.31
2023-09-23T06:09:34.520Z,96754.94
2023-09-23T06:12:03.489Z,96755.38
2023-09-23T06:14:31.944Z,96758.41
2023-09-23T06:16:59.625Z,96761.81
2023-09-23T06:19:27.252Z,96766.47
2023-09-23T06:21:55.358Z,96762.56
2023-09-23T06:24:22.951Z,96776.47
2023-09-23T06:26:51.696Z,96780.09
2023-09-23T06:29:20.708Z,96779.56
2023-09-23T06:31:48.423Z,96786.69
2023-09-23T06:34:16.010Z,96793.25
2023-09-23T06:36:43.594Z,96783.47
2023-09-23T06:39:11.161Z,96796.91
2023-09-23T06:41:44.315Z,96794.81
2023-09-23T06:44:12.073Z,96793.41
2023-09-23T06:46:41.287Z,96796.34
2023-09-23T06:49:09.285Z,96802.75
2023-09-23T06:51:37.049Z,96799.56
2023-09-23T06:54:05.238Z,96808.88
2023-09-23T06:56:33.526Z,96805.09
2023-09-23T06:59:01.126Z,96810.25
2023-09-23T07:01:28.797Z,96811.09
2023-09-23T07:03:57.828Z,96815.84
2023-09-23T07:06:25.560Z,96816.47
2023-09-23T07:08:53.264Z,96812.25
2023-09-23T07:11:22.004Z,96822.53
2023-09-23T07:13:49.718Z,96821.16
2023-09-23T07:16:17.568Z,96823.78
2023-09-23T07:18:46.506Z,96829.09
2023-09-23T07:21:15.619Z,96827.94
2023-09-23T07:23:43.263Z,96838.06
2023-09-23T07:26:10.978Z,96842.75
2023-09-23T07:28:38.708Z,96843.88
2023-09-23T07:31:12.113Z,96843.53
2023-09-23T07:33:39.870Z,96844.16
2023-09-23T07:36:11.493Z,96847.88
2023-09-23T07:38:40.442Z,96852.41
2023-09-23T07:41:08.227Z,96845.44
2023-09-23T07:43:35.853Z,96852.66
2023-09-23T07:46:03.630Z,96867.00
2023-09-23T07:48:31.300Z,96872.47
2023-09-23T07:50:58.875Z,96875.63
2023-09-23T07:53:26.504Z,96888.69
2023-09-23T07:55:55.624Z,96881.47
2023-09-23T07:58:23.228Z,96886.91
2023-09-23T08:00:50.791Z,96895.66
2023-09-23T08:03:18.439Z,96902.44
2023-09-23T08:05:46.056Z,96899.13
2023-09-23T08:08:13.805Z,96904.09
2023-09-23T08:10:41.473Z,96901.44
2023-09-23T08:13:10.413Z,96900.59
2023-09-23T08:15:38.196Z,96904.06
2023-09-23T08:18:06.374Z,96913.91
2023-09-23T08:20:34.042Z,96934.97
2023-09-23T08:23:01.820Z,96927.00
2023-09-23T08:25:30.033Z,96931.06
2023-09-23T08:27:58.116Z,96932.94
2023-09-23T08:30:27.197Z,96939.28
2023-09-23T08:32:56.298Z,96944.19
2023-09-23T08:35:24.282Z,96941.72
2023-09-23T08:37:52.023Z,96938.03
2023-09-23T08:40:21.721Z,96935.34
2023-09-23T08:42:52.824Z,96939.00
2023-09-23T08:45:23.980Z,96943.56
2023-09-23T08:47:53.261Z,96932.88
2023-09-23T08:50:21.985Z,96945.38
2023-09-23T08:52:49.861Z,96953.34
2023-09-23T08:55:19.230Z,96951.03
2023-09-23T08:57:46.948Z,96952.41
2023-09-23T09:00:18.554Z,96959.66
2023-09-23T09:02:46.489Z,96959.75
2023-09-23T09:05:16.419Z,96964.03
2023-09-23T09:07:44.152Z,96961.31
2023-09-23T09:10:12.221Z,96966.91
2023-09-23T09:12:39.968Z,96966.06
2023-09-23T09:15:08.826Z,96964.91
2023-09-23T09:17:36.606Z,96961.06
2023-09-23T09:20:07.504Z,96959.88
2023-09-23T09:22:37.500Z,96963.56
2023-09-23T09:25:05.979Z,96954.59
2023-09-23T09:27:33.631Z,96957.53
2023-09-23T09:30:12.689Z,96951.38
2023-09-23T09:32:43.699Z,96957.00
2023-09-23T09:35:14.499Z,96954.59
2023-09-23T09:37:45.832Z,96955.13
2023-09-23T09:40:18.146Z,96957.63
2023-09-23T09:42:51.908Z,96942.81
2023-09-23T09:45:21.088Z,96939.09
2023-09-23T09:47:49.925Z,96951.75
2023-09-23T09:50:18.302Z,96950.13
2023-09-23T09:52:47.380Z,96951.97
2023-09-23T09:55:20.158Z,96937.91
2023-09-23T09:57:49.090Z,96938.44
2023-09-23T10:00:25.126Z,96943.56
2023-09-23T10:02:58.878Z,96947.34
2023-09-23T10:05:33.585Z,96946.00
2023-09-23T10:08:14.325Z,96953.97
2023-09-23T10:10:48.336Z,96949.78
2023-09-23T10:13:18.073Z,96944.63
2023-09-23T10:15:45.996Z,96953.59
2023-09-23T10:18:14.967Z,96952.38
2023-09-23T10:20:44.027Z,96947.69
2023-09-23T10:23:17.124Z,96950.19
2023-09-23T10:25:44.859Z,96948.22
2023-09-23T10:28:24.258Z,96940.28
2023-09-23T10:30:59.401Z,96940.59
2023-09-23T10:33:27.462Z,96946.97
2023-09-23T10:35:55.782Z,96936.34
2023-09-23T10:38:24.983Z,96939.09
2023-09-23T10:40:53.256Z,96933.75
2023-09-23T10:43:21.269Z,96938.06
2023-09-23T10:45:49.750Z,96939.72
2023-09-23T10:48:17.781Z,96940.44
2023-09-23T10:50:46.838Z,96936.59
2023-09-23T10:53:15.341Z,96944.53
2023-09-23T10:55:44.557Z,96951.50
2023-09-23T10:58:12.512Z,96948.91
2023-09-23T11:00:40.145Z,96950.97
2023-09-23T11:03:09.263Z,96958.19
2023-09-23T11:05:38.818Z,96935.94
2023-09-23T11:08:07.643Z,96958.53
2023-09-23T11:10:36.068Z,96959.56
2023-09-23T11:13:07.758Z,96956.69
2023-09-23T11:15:35.531Z,96960.03
2023-09-23T11:18:03.618Z,96959.59
2023-09-23T11:20:32.039Z,96962.84
2023-09-23T11:23:03.401Z,96966.09
2023-09-23T11:25:31.266Z,96969.50
2023-09-23T11:28:02.092Z,96975.75
2023-09-23T11:30:31.379Z,96968.72
2023-09-23T11:32:59.053Z,96979.50
2023-09-23T11:35:26.914Z,96976.69
2023-09-23T11:37:55.446Z,96978.75
2023-09-23T11:40:24.084Z,96975.56
2023-09-23T11:42:52.573Z,96973.22
2023-09-23T11:45:21.699Z,96964.56
2023-09-23T11:47:51.129Z,96969.19
2023-09-23T11:50:18.782Z,96967.25
2023-09-23T11:52:46.499Z,96975.94
2023-09-23T11:55:14.469Z,96966.34
2023-09-23T11:57:42.253Z,96970.34
2023-09-23T12:00:11.926Z,96967.28
2023-09-23T12:02:40.927Z,96978.28
2023-09-23T12:05:12.803Z,96960.31
2023-09-23T12:07:42.138Z,96964.31
2023-09-23T12:10:10.580Z,96960.94
2023-09-23T12:12:40.007Z,96957.34
2023-09-23T12:15:10.026Z,96964.03
2023-09-23T12:17:37.847Z,96942.47
2023-09-23T12:20:08.558Z,96959.59
2023-09-23T12:22:37.568Z,96960.28
2023-09-23T12:25:06.408Z,96974.06
2023-09-23T12:27:34.240Z,96968.38
2023-09-23T12:30:02.090Z,96965.47
2023-09-23T12:32:30.186Z,96971.75
2023-09-23T12:34:57.855Z,96969.88
2023-09-23T12:37:28.185Z,96955.63
2023-09-23T12:39:57.330Z,96962.16
2023-09-23T12:42:25.159Z,96962.78
2023-09-23T12:44:52.736Z,96970.66
2023-09-23T12:47:20.348Z,96978.50
2023-09-23T12:49:47.958Z,96975.81
2023-09-23T12:52:15.626Z,96966.94
2023-09-23T12:54:43.336Z,96969.81
2023-09-23T12:57:12.268Z,96972.03
2023-09-23T12:59:39.842Z,96964.97
2023-09-23T13:02:07.474Z,96981.16
2023-09-23T13:04:35.122Z,96985.44
2023-09-23T13:07:02.809Z,96982.66
2023-09-23T13:09:31.473Z,96983.94
2023-09-23T13:11:59.100Z,96982.63
2023-09-23T13:14:28.004Z,96978.47
2023-09-23T13:16:55.623Z,96982.53
2023-09-23T13:19:23.193Z,96984.28
2023-09-23T13:21:50.810Z,96979.97
2023-09-23T13:24:18.404Z,96981.25
2023-09-23T13:26:46.651Z,96984.88
2023-09-23T13:29:15.636Z,96983.06
2023-09-23T13:31:44.560Z,96983.19
2023-09-23T13:34:12.265Z,96992.19
2023-09-23T13:36:39.877Z,96989.09
2023-09-23T13:39:07.495Z,96999.34
2023-09-23T13:41:35.147Z,96997.34
2023-09-23T13:44:02.747Z,97005.47
2023-09-23T13:46:30.541Z,97006.09
2023-09-23T13:48:59.645Z,97006.13
2023-09-23T13:51:27.278Z,97009.56
2023-09-23T13:53:54.933Z,97000.94
2023-09-23T13:56:25.453Z,97003.09
2023-09-23T13:58:54.139Z,96996.41
2023-09-23T14:01:22.073Z,96995.66
2023-09-23T14:03:49.699Z,96997.34
2023-09-23T14:06:18.702Z,96999.50
2023-09-23T14:08:46.617Z,96991.03
2023-09-23T14:11:14.860Z,97001.03
2023-09-23T14:13:45.378Z,97002.19
2023-09-23T14:16:13.216Z,97009.59
2023-09-23T14:18:40.833Z,97016.59
2023-09-23T14:21:08.454Z,97016.06
2023-09-23T14:23:37.596Z,97016.91
2023-09-23T14:26:05.311Z,97018.88
2023-09-23T14:28:32.932Z,97020.88
2023-09-23T14:31:01.190Z,97020.22
2023-09-23T14:33:28.842Z,97037.56
2023-09-23T14:35:56.733Z,97044.34
2023-09-23T14:38:24.884Z,97052.50
2023-09-23T14:40:53.884Z,97056.09
2023-09-23T14:43:21.479Z,97043.25
2023-09-23T14:45:49.213Z,97050.38
2023-09-23T14:48:17.091Z,97054.00
2023-09-23T14:50:45.265Z,97065.16
2023-09-23T14:53:12.994Z,97067.94
2023-09-23T14:55:40.560Z,97064.22
2023-09-23T14:58:09.453Z,97073.31
2023-09-23T15:00:37.211Z,97081.66
2023-09-23T15:03:06.050Z,97084.28
2023-09-23T15:05:34.570Z,97092.53
2023-09-23T15:08:02.370Z,97089.22
2023-09-23T15:10:29.987Z,97089.50
2023-09-23T15:12:57.784Z,97091.94
2023-09-23T15:15:27.460Z,97091.06
2023-09-23T15:17:55.104Z,97090.03
2023-09-23T15:20:22.960Z,97091.06
2023-09-23T15:22:50.729Z,97096.50
2023-09-23T15:25:18.890Z,97088.44
2023-09-23T15:27:46.509Z,97095.00
2023-09-23T15:30:17.193Z,97101.66
2023-09-23T15:32:48.078Z,97108.88
2023-09-23T15:35:17.389Z,97113.09
2023-09-23T15:37:45.025Z,97114.03
2023-09-23T15:40:17.555Z,97113.28
2023-09-23T15:42:46.175Z,97118.72
2023-09-23T15:45:15.112Z,97116.66
2023-09-23T15:47:42.732Z,97119.28
2023-09-23T15:50:12.234Z,97123.94
2023-09-23T15:52:39.929Z,97123.16
2023-09-23T15:55:07.839Z,97130.81
2023-09-23T15:57:36.314Z,97133.44
2023-09-23T16:00:04.677Z,97133.31
2023-09-23T16:02:34.439Z,97138.41
2023-09-23T16:05:02.383Z,97132.19
2023-09-23T16:07:31.512Z,97139.88
2023-09-23T16:09:59.104Z,97134.78
2023-09-23T16:12:26.723Z,97140.84
2023-09-23T16:14:54.302Z,97144.50
2023-09-23T16:17:22.493Z,97139.25
2023-09-23T16:19:50.860Z,97139.53
2023-09-23T16:22:20.154Z,97135.91
2023-09-23T16:24:49.082Z,97136.19
2023-09-23T16:27:17.184Z,97126.44
2023-09-23T16:29:44.766Z,97124.63
2023-09-23T16:32:12.533Z,97134.13
2023-09-23T16:34:40.094Z,97133.75
2023-09-23T16:37:07.801Z,97138.69
2023-09-23T16:39:34.462Z,97143.00
2023-09-23T16:42:09.955Z,97141.00
2023-09-23T16:44:37.944Z,97162.97
2023-09-23T16:47:05.761Z,97156.22
2023-09-23T16:49:33.486Z,97155.81
2023-09-23T16:52:01.635Z,97152.97
2023-09-23T16:54:29.394Z,97157.88
2023-09-23T16:56:57.097Z,97168.75
2023-09-23T16:59:26.185Z,97170.59
2023-09-23T17:01:53.930Z,97166.91
2023-09-23T17:04:21.606Z,97176.47
2023-09-23T17:06:49.370Z,97171.09
2023-09-23T17:09:17.292Z,97171.69
2023-09-23T17:11:52.474Z,97172.03
2023-09-23T17:14:21.564Z,97180.16
2023-09-23T17:16:51.400Z,97182.56
2023-09-23T17:19:19.126Z,97189.69
2023-09-23T17:21:46.906Z,97196.34
2023-09-23T17:24:14.688Z,97198.72
2023-09-23T17:26:42.468Z,97202.75
2023-09-23T17:29:10.191Z,97210.22
2023-09-23T17:31:39.041Z,97217.13
2023-09-23T17:34:08.215Z,97222.38
2023-09-23T17:36:36.246Z,97233.56
2023-09-23T17:39:04.234Z,97239.25
2023-09-23T17:41:32.484Z,97233.50
2023-09-23T17:44:00.334Z,97239.00
2023-09-23T17:46:28.394Z,97239.19
2023-09-23T17:48:56.041Z,97233.63
2023-09-23T17:51:25.232Z,97243.00
2023-09-23T17:53:52.894Z,97242.34
2023-09-23T17:56:22.959Z,97251.97
2023-09-23T17:58:51.032Z,97259.28
2023-09-23T18:01:18.659Z,97265.63
2023-09-23T18:03:46.658Z,97280.59
2023-09-23T18:06:14.700Z,97283.13
2023-09-23T18:08:44.003Z,97289.50
2023-09-23T18:11:12.132Z,97299.56
2023-09-23T18:13:40.926Z,97299.75
2023-09-23T18:16:08.678Z,97306.50
2023-09-23T18:18:36.418Z,97316.84
2023-09-23T18:21:03.992Z,97318.75
2023-09-23T18:23:32.969Z,97325.53
2023-09-23T18:26:01.930Z,97333.09
2023-09-23T18:28:30.685Z,97337.41
2023-09-23T18:30:58.283Z,97328.81
2023-09-23T18:33:26.938Z,97341.75
2023-09-23T18:35:54.680Z,97349.16
2023-09-23T18:38:23.975Z,97354.28
2023-09-23T18:40:53.507Z,97357.69
2023-09-23T18:43:22.480Z,97352.19
2023-09-23T18:45:50.535Z,97366.94
2023-09-23T18:48:26.980Z,97367.13
2023-09-23T18:50:55.917Z,97376.72
2023-09-23T18:53:23.826Z,97380.56
2023-09-23T18:55:52.479Z,97378.31
2023-09-23T18:58:20.542Z,97378.88
2023-09-23T19:00:49.582Z,97379.81
2023-09-23T19:03:18.468Z,97373.03
2023-09-23T19:05:47.442Z,97382.78
2023-09-23T19:08:15.459Z,97391.69
2023-09-23T19:10:43.292Z,97389.31
2023-09-23T19:13:10.854Z,97399.22
2023-09-23T19:15:38.488Z,97388.97
2023-09-23T19:18:08.002Z,97393.38
2023-09-23T19:20:36.965Z,97383.91
2023-09-23T19:23:04.695Z,97390.28
2023-09-23T19:25:41.662Z,97398.88
2023-09-23T19:28:09.763Z,97405.13
2023-09-23T19:30:37.311Z,97416.16
2023-09-23T19:33:05.660Z,97412.59
2023-09-23T19:35:37.551Z,97411.69
2023-09-23T19:38:05.561Z,97417.81
2023-09-23T19:40:33.212Z,97417.97
2023-09-23T19:43:00.791Z,97416.69
2023-09-23T19:45:28.408Z,97420.88
2023-09-23T19:47:56.996Z,97420.22
2023-09-23T19:50:25.091Z,97426.72
2023-09-23T19:52:56.072Z,97427.88
2023-09-23T19:55:24.203Z,97427.09
2023-09-23T19:57:52.496Z,97433.09
2023-09-23T20:00:20.614Z,97435.75
2023-09-23T20:02:48.780Z,97438.72
2023-09-23T20:05:16.815Z,97437.63
2023-09-23T20:07:44.946Z,97444.09
2023-09-23T20:10:14.138Z,97448.94
2023-09-23T20:12:41.701Z,97453.41
2023-09-23T20:15:10.236Z,97454.41
2023-09-23T20:17:39.962Z,97450.28
2023-09-23T20:20:09.928Z,97454.25
2023-09-23T20:22:37.501Z,97463.53
2023-09-23T20:25:06.118Z,97453.13
2023-09-23T20:27:35.129Z,97460.25
2023-09-23T20:30:07.701Z,97464.38
2023-09-23T20:32:37.001Z,97459.53
2023-09-23T20:35:07.034Z,97470.13
2023-09-23T20:37:36.353Z,97477.75
2023-09-23T20:40:04.135Z,97476.78
2023-09-23T20:42:31.823Z,97478.75
2023-09-23T20:45:00.813Z,97476.59
2023-09-23T20:47:28.653Z,97479.59
2023-09-23T20:49:56.255Z,97476.94
2023-09-23T20:52:23.841Z,97488.66
2023-09-23T20:54:53.422Z,97484.72
2023-09-23T20:57:21.662Z,97498.03
2023-09-23T20:59:49.488Z,97487.66
2023-09-23T21:02:18.881Z,97491.63
2023-09-23T21:04:47.379Z,97494.81
2023-09-23T21:07:16.047Z,97494.34
2023-09-23T21:09:43.621Z,97500.97
2023-09-23T21:12:11.238Z,97507.78
2023-09-23T21:14:38.861Z,97512.59
2023-09-23T21:17:06.558Z,97516.56
2023-09-23T21:19:35.518Z,97519.34
2023-09-23T21:22:03.436Z,97527.28
2023-09-23T21:24:30.990Z,97527.84
2023-09-23T21:26:58.588Z,97537.94
2023-09-23T21:29:26.308Z,97533.69
2023-09-23T21:31:53.937Z,97530.88
2023-09-23T21:34:21.533Z,97537.31
2023-09-23T21:36:50.461Z,97542.16
2023-09-23T21:39:18.010Z,97551.22
2023-09-23T21:41:45.648Z,97541.81
2023-09-23T21:44:13.274Z,97553.22
2023-09-23T21:46:41.038Z,97551.91
2023-09-23T21:49:09.235Z,97555.88
2023-09-23T21:51:36.911Z,97551.25
2023-09-23T21:54:06.721Z,97553.25
2023-09-23T21:56:43.826Z,97549.59
2023-09-23T21:59:12.556Z,97540.22
2023-09-23T22:01:40.333Z,97546.50
2023-09-23T22:04:08.567Z,97547.47
2023-09-23T22:06:37.574Z,97551.59
2023-09-23T22:09:06.678Z,97548.97
2023-09-23T22:11:34.674Z,97555.22
2023-09-23T22:14:04.223Z,97554.25
2023-09-23T22:16:31.924Z,97549.13
2023-09-23T22:18:59.516Z,97553.75
2023-09-23T22:21:27.396Z,97546.31
2023-09-23T22:23:55.866Z,97552.25
2023-09-23T22:26:25.129Z,97554.72
2023-09-23T22:28:52.882Z,97549.91
2023-09-23T22:31:26.979Z,97556.00
2023-09-23T22:33:54.694Z,97555.53
2023-09-23T22:36:22.245Z,97554.34
2023-09-23T22:38:49.966Z,97554.81
2023-09-23T22:41:18.337Z,97549.84
2023-09-23T22:43:48.859Z,97551.66
2023-09-23T22:46:17.034Z,97558.09
2023-09-23T22:48:44.992Z,97559.56
2023-09-23T22:51:12.765Z,97560.19
2023-09-23T22:53:41.441Z,97566.13
2023-09-23T22:56:09.104Z,97572.56
2023-09-23T22:58:36.710Z,97562.31
2023-09-23T23:01:07.168Z,97566.94
2023-09-23T23:03:34.834Z,97574.31
2023-09-23T23:06:07.896Z,97570.00
2023-09-23T23:08:36.168Z,97582.22
2023-09-23T23:11:08.445Z,97572.78
2023-09-23T23:13:37.515Z,97576.41
2023-09-23T23:16:09.608Z,97581.03
2023-09-23T23:18:37.555Z,97575.53
2023-09-23T23:21:05.424Z,97577.38
2023-09-23T23:23:33.128Z,97571.44
2023-09-23T23:26:01.044Z,97578.34
2023-09-23T23:28:29.022Z,97578.00
2023-09-23T23:30:59.201Z,97577.16
2023-09-23T23:33:29.899Z,97583.75
2023-09-23T23:35:59.634Z,97581.28
2023-09-23T23:38:27.708Z,97585.88
2023-09-23T23:40:55.922Z,97582.25
2023-09-23T23:43:24.746Z,97585.34
2023-09-23T23:45:59.689Z,97588.75
2023-09-23T23:48:30.002Z,97584.31
2023-09-23T23:51:11.489Z,97592.03
2023-09-23T23:53:42.411Z,97590.00
2023-09-23T23:56:10.662Z,97587.81
2023-09-23T23:58:39.362Z,97585.03
